Time;durP1;ratioP1;P1;durP2;ratioP2;P2;SDS_P1;SDS_P2;PMS_P1;PMS_P2;Temp;Humidity;BMP_temperature;BMP_pressure;BME280_temperature;BME280_humidity;BME280_pressure;Samples;Min_cycle;Max_cycle;Signal;HPM_P1;HPM_P2
2022/12/24 00:00:59;;;;;;;40.33;20.17;;;;;;;3.30;100.00;100275.12;1716929;84;21026;-72
2022/12/24 00:03:26;;;;;;;33.60;16.37;;;;;;;3.28;100.00;100278.40;1716929;84;20993;-72
2022/12/24 00:05:53;;;;;;;35.77;18.10;;;;;;;3.28;100.00;100275.73;1716681;84;21516;-71
2022/12/24 00:08:20;;;;;;;35.37;17.70;;;;;;;3.28;100.00;100275.73;1716861;84;21499;-69
2022/12/24 00:10:51;;;;;;;35.93;17.50;;;;;;;3.26;100.00;100281.19;1716609;82;21025;-70
2022/12/24 00:13:18;;;;;;;39.47;19.20;;;;;;;3.26;100.00;100274.50;1716607;84;20982;-70
2022/12/24 00:15:46;;;;;;;34.00;16.90;;;;;;;3.27;100.00;100275.34;1717098;84;21005;-72
2022/12/24 00:18:13;;;;;;;39.50;19.30;;;;;;;3.25;100.00;100268.77;1717120;84;21002;-71
2022/12/24 00:20:40;;;;;;;32.90;16.90;;;;;;;3.26;100.00;100266.48;1720520;82;21498;-71
2022/12/24 00:23:07;;;;;;;36.63;18.30;;;;;;;3.27;100.00;100263.31;1757994;82;21017;-70
2022/12/24 00:25:36;;;;;;;40.23;19.10;;;;;;;3.25;100.00;100259.42;1758036;82;21078;-72
2022/12/24 00:28:03;;;;;;;41.53;18.67;;;;;;;3.27;100.00;100257.97;1758340;81;21030;-72
2022/12/24 00:30:30;;;;;;;38.67;19.43;;;;;;;3.27;100.00;100254.80;1757904;81;21029;-70
2022/12/24 00:32:58;;;;;;;42.47;20.57;;;;;;;3.27;100.00;100257.97;1757806;81;21518;-70
2022/12/24 00:35:27;;;;;;;38.73;19.33;;;;;;;3.25;100.00;100254.08;1758052;82;21025;-70
2022/12/24 00:37:55;;;;;;;38.87;18.27;;;;;;;3.23;100.00;100254.69;1758028;81;21075;-71
2022/12/24 00:40:23;;;;;;;36.33;16.97;;;;;;;3.23;100.00;100247.52;1758057;82;21041;-71
2022/12/24 00:42:50;;;;;;;37.33;17.50;;;;;;;3.23;100.00;100246.67;1757838;81;21472;-72
2022/12/24 00:45:19;;;;;;;40.30;19.57;;;;;;;3.24;100.00;100241.70;1757801;80;21045;-72
2022/12/24 00:47:46;;;;;;;38.60;19.60;;;;;;;3.24;100.00;100241.70;1758168;81;20996;-71
2022/12/24 00:50:13;;;;;;;35.40;17.93;;;;;;;3.24;100.00;100244.37;1758179;81;21499;-72
2022/12/24 00:52:41;;;;;;;35.93;18.27;;;;;;;3.25;100.00;100243.88;1758236;81;21452;-71
2022/12/24 00:55:08;;;;;;;37.13;18.60;;;;;;;3.22;100.00;100243.16;1758262;81;21003;-70
2022/12/24 00:57:35;;;;;;;36.27;17.50;;;;;;;3.20;100.00;100234.38;1757833;82;20994;-70
2022/12/24 01:00:05;;;;;;;33.23;16.27;;;;;;;3.17;100.00;100230.63;1758191;81;21578;-71
2022/12/24 01:02:33;;;;;;;34.23;16.73;;;;;;;3.17;100.00;100235.10;1758138;81;21559;-72
2022/12/24 01:05:11;;;;;;;32.17;16.60;;;;;;;3.14;100.00;100230.02;1758247;82;21049;-70
2022/12/24 01:07:43;;;;;;;33.30;16.37;;;;;;;3.13;100.00;100230.48;1757902;82;21042;-71
2022/12/24 01:10:14;;;;;;;32.90;16.77;;;;;;;3.13;100.00;100227.81;1758214;81;21076;-71
2022/12/24 01:12:41;;;;;;;34.80;17.77;;;;;;;3.13;100.00;100222.96;1758103;81;21033;-71
2022/12/24 01:15:09;;;;;;;39.80;17.43;;;;;;;3.14;100.00;100219.33;1758139;82;21488;-71
2022/12/24 01:17:36;;;;;;;32.40;17.03;;;;;;;3.12;100.00;100220.78;1757964;82;21029;-70
2022/12/24 01:20:04;;;;;;;38.03;19.10;;;;;;;3.10;100.00;100213.37;1758058;82;21060;-72
2022/12/24 01:22:31;;;;;;;39.53;18.13;;;;;;;3.10;100.00;100220.05;1725093;82;21057;-70
2022/12/24 01:24:59;;;;;;;39.60;18.73;;;;;;;3.07;100.00;100211.42;1716689;84;20990;-70
2022/12/24 01:27:25;;;;;;;40.43;19.63;;;;;;;3.06;100.00;100219.06;1716509;84;20982;-71
2022/12/24 01:29:52;;;;;;;37.47;18.10;;;;;;;3.03;100.00;100219.67;1716664;84;21096;-70
2022/12/24 01:32:18;;;;;;;37.13;18.80;;;;;;;3.01;100.00;100221.61;1716638;84;21069;-71
2022/12/24 01:34:45;;;;;;;34.00;16.23;;;;;;;2.99;100.00;100216.87;1716679;84;21073;-72
2022/12/24 01:37:12;;;;;;;39.80;19.07;;;;;;;2.99;100.00;100220.88;1716468;84;21066;-71
2022/12/24 01:39:39;;;;;;;43.03;21.50;;;;;;;2.96;100.00;100226.95;1716772;84;21066;-71
2022/12/24 01:45:45;;;;;;;41.43;19.77;;;;;;;2.95;100.00;100220.73;1716926;82;21089;-70
2022/12/24 01:48:38;;;;;;;40.03;20.60;;;;;;;2.94;100.00;100224.39;1716630;84;21049;-72
2022/12/24 01:51:30;;;;;;;38.63;18.57;;;;;;;2.92;100.00;100226.33;1713000;84;21519;-71
2022/12/24 01:54:07;;;;;;;36.00;18.53;;;;;;;2.92;100.00;100224.13;1716309;83;21041;-70
2022/12/24 01:56:37;;;;;;;38.60;18.67;;;;;;;2.92;100.00;100221.45;1716531;83;21518;-72
2022/12/24 01:59:07;;;;;;;36.93;19.27;;;;;;;2.91;100.00;100222.44;1716687;84;21025;-71
2022/12/24 02:01:34;;;;;;;34.67;17.50;;;;;;;2.92;100.00;100226.80;1716694;84;21068;-71
2022/12/24 02:04:12;;;;;;;40.27;20.10;;;;;;;2.91;100.00;100217.94;1700888;83;21006;-72
2022/12/24 02:06:38;;;;;;;35.37;19.73;;;;;;;2.94;100.00;100227.52;1716842;84;21017;-71
2022/12/24 02:09:06;;;;;;;37.57;18.80;;;;;;;2.95;100.00;100231.41;1716758;83;21531;-72
2022/12/24 02:11:34;;;;;;;36.17;18.50;;;;;;;2.96;100.00;100227.79;1716566;83;21037;-71
2022/12/24 02:14:00;;;;;;;34.67;17.97;;;;;;;3.00;100.00;100225.73;1716814;83;20966;-71
2022/12/24 02:17:06;;;;;;;35.07;17.77;;;;;;;2.99;100.00;100223.55;1716640;84;20994;-72
2022/12/24 02:20:05;;;;;;;32.73;17.00;;;;;;;3.01;100.00;100222.95;1716678;82;21022;-71
2022/12/24 02:23:17;;;;;;;33.53;16.60;;;;;;;3.02;100.00;100221.12;1743686;82;21088;-72
2022/12/24 02:26:07;;;;;;;33.73;18.07;;;;;;;3.02;100.00;100219.29;1758148;81;21017;-72
2022/12/24 02:29:08;;;;;;;34.00;16.67;;;;;;;3.02;100.00;100221.96;1739450;82;21065;-71
2022/12/24 02:31:51;;;;;;;31.67;16.67;;;;;;;3.02;100.00;100214.44;1758050;81;21022;-72
2022/12/24 02:34:37;;;;;;;38.48;18.73;;;;;;;3.04;100.00;100220.51;1758149;82;21528;-70
2022/12/24 02:37:10;;;;;;;35.40;17.83;;;;;;;3.03;100.00;100220.16;1758202;82;20998;-71
2022/12/24 02:39:46;;;;;;;37.17;17.83;;;;;;;3.00;100.00;100225.73;1758003;81;21018;-71
2022/12/24 02:42:15;;;;;;;36.80;18.77;;;;;;;3.01;100.00;100220.73;1758357;81;21049;-71
2022/12/24 02:44:56;;;;;;;39.33;19.90;;;;;;;2.99;100.00;100224.89;1758170;81;21574;-71
2022/12/24 02:47:24;;;;;;;42.57;20.23;;;;;;;2.97;100.00;100229.48;1758269;81;21502;-72
2022/12/24 02:49:51;;;;;;;37.67;19.13;;;;;;;2.99;100.00;100226.23;1757997;81;21038;-71
2022/12/24 02:52:33;;;;;;;40.93;20.73;;;;;;;2.97;100.00;100225.96;1758128;81;21006;-71
2022/12/24 02:55:12;;;;;;;37.38;18.92;;;;;;;2.97;100.00;100228.14;1758112;81;21022;-71
2022/12/24 02:57:44;;;;;;;36.53;17.63;;;;;;;2.96;100.00;100226.95;1758547;81;21010;-73
2022/12/24 03:00:15;;;;;;;43.17;21.77;;;;;;;2.97;100.00;100226.80;1758063;81;21061;-70
2022/12/24 03:03:06;;;;;;;36.77;18.40;;;;;;;2.95;100.00;100229.23;1758163;81;21018;-72
2022/12/24 03:05:51;;;;;;;38.07;19.13;;;;;;;2.93;100.00;100223.17;1757614;82;21561;-73
2022/12/24 03:08:44;;;;;;;33.17;16.87;;;;;;;2.93;100.00;100226.68;1758348;82;21123;-71
2022/12/24 03:11:14;;;;;;;36.35;16.80;;;;;;;2.92;100.00;100223.66;1758402;81;21547;-72
2022/12/24 03:13:43;;;;;;;35.30;16.70;;;;;;;2.91;100.00;100219.27;1758515;81;21002;-71
2022/12/24 03:16:13;;;;;;;34.07;15.93;;;;;;;2.91;100.00;100221.95;1758305;81;21084;-72
2022/12/24 03:18:45;;;;;;;34.40;17.67;;;;;;;2.92;100.00;100216.98;1758264;82;21574;-71
2022/12/24 03:21:33;;;;;;;33.37;15.63;;;;;;;2.91;100.00;100213.94;1758025;81;21026;-71
2022/12/24 03:24:00;;;;;;;31.57;15.03;;;;;;;2.91;100.00;100218.44;1716932;83;21040;-71
2022/12/24 03:26:28;;;;;;;34.17;15.97;;;;;;;2.90;100.00;100217.56;1716873;83;21072;-71
2022/12/24 03:28:56;;;;;;;29.17;14.97;;;;;;;2.89;100.00;100224.38;1716999;83;21058;-71
2022/12/24 03:31:23;;;;;;;35.67;17.03;;;;;;;2.90;100.00;100222.06;1716933;84;21570;-72
2022/12/24 03:33:51;;;;;;;31.77;15.67;;;;;;;2.92;100.00;100224.13;1716818;84;21022;-72
2022/12/24 03:36:18;;;;;;;30.23;15.47;;;;;;;2.94;100.00;100218.17;1716679;83;21033;-71
2022/12/24 03:38:45;;;;;;;31.23;15.60;;;;;;;2.95;100.00;100217.22;1717180;84;21009;-71
2022/12/24 03:41:12;;;;;;;39.43;17.40;;;;;;;2.94;100.00;100222.18;1716729;83;21065;-72
2022/12/24 03:43:40;;;;;;;38.53;16.87;;;;;;;2.93;100.00;100217.33;1716786;84;21033;-71
2022/12/24 03:46:08;;;;;;;28.43;14.17;;;;;;;2.93;100.00;100224.50;1716673;83;21602;-71
2022/12/24 03:48:35;;;;;;;31.13;14.40;;;;;;;2.90;100.00;100220.23;1716937;84;21022;-72
2022/12/24 03:51:02;;;;;;;31.90;15.33;;;;;;;2.90;100.00;100220.23;1716806;84;21037;-71
2022/12/24 03:53:33;;;;;;;30.57;15.27;;;;;;;2.90;100.00;100216.22;1716805;84;21084;-71
2022/12/24 03:56:00;;;;;;;32.77;16.43;;;;;;;2.91;100.00;100213.09;1716764;84;21080;-72
2022/12/24 03:58:27;;;;;;;30.73;14.87;;;;;;;2.93;100.00;100211.15;1716857;84;21011;-70
2022/12/24 04:00:54;;;;;;;30.87;15.07;;;;;;;2.94;100.00;100209.70;1716833;83;21022;-72
2022/12/24 04:03:21;;;;;;;34.50;15.47;;;;;;;2.94;100.00;100210.16;1716964;84;21057;-71
2022/12/24 04:05:48;;;;;;;34.30;15.77;;;;;;;2.96;100.00;100208.25;1716928;84;21060;-72
2022/12/24 04:08:15;;;;;;;30.83;15.50;;;;;;;3.00;100.00;100207.03;1672340;84;21033;-71
2022/12/24 04:10:43;;;;;;;35.67;17.93;;;;;;;3.02;100.00;100217.11;1716641;84;21527;-70
2022/12/24 04:13:10;;;;;;;53.13;24.83;;;;;;;3.01;100.00;100210.92;1716896;83;21531;-71
2022/12/24 04:15:37;;;;;;;56.93;26.17;;;;;;;3.02;100.00;100211.77;1716940;83;21057;-72
2022/12/24 04:18:05;;;;;;;58.53;27.23;;;;;;;3.03;100.00;100211.66;1716796;84;21041;-71
2022/12/24 04:20:32;;;;;;;62.70;30.27;;;;;;;3.07;100.00;100218.11;1716652;83;21039;-71
2022/12/24 04:22:59;;;;;;;50.57;25.30;;;;;;;3.08;100.00;100211.77;1716760;83;21053;-70
2022/12/24 04:25:26;;;;;;;44.70;22.13;;;;;;;3.07;100.00;100208.75;1716612;83;20998;-71
2022/12/24 04:27:55;;;;;;;40.87;20.40;;;;;;;3.03;100.00;100204.98;1716836;82;21491;-72
2022/12/24 04:30:24;;;;;;;38.03;17.13;;;;;;;3.03;100.00;100207.65;1716820;84;21081;-71
2022/12/24 04:32:51;;;;;;;32.57;16.17;;;;;;;3.03;100.00;100206.80;1716846;83;20998;-72
2022/12/24 04:35:18;;;;;;;31.70;14.80;;;;;;;3.02;100.00;100209.94;1716840;84;21018;-72
2022/12/24 04:37:44;;;;;;;29.57;14.33;;;;;;;3.01;100.00;100210.92;1716905;83;20998;-71
2022/12/24 04:40:12;;;;;;;31.07;14.50;;;;;;;3.01;100.00;100211.39;1716999;84;21018;-71
2022/12/24 04:42:38;;;;;;;32.50;15.30;;;;;;;3.01;100.00;100218.06;1716914;84;21017;-71
2022/12/24 04:45:07;;;;;;;39.77;18.00;;;;;;;3.02;100.00;100215.78;1716567;84;21001;-72
2022/12/24 04:47:34;;;;;;;37.90;16.63;;;;;;;3.02;100.00;100222.45;1716945;84;21009;-70
2022/12/24 04:50:01;;;;;;;38.00;16.43;;;;;;;3.00;100.00;100213.71;1716958;84;21071;-71
2022/12/24 04:52:28;;;;;;;35.13;16.33;;;;;;;2.98;100.00;100216.98;1716879;83;21001;-71
2022/12/24 04:54:54;;;;;;;33.43;15.97;;;;;;;2.96;100.00;100219.77;1716907;84;21017;-72
2022/12/24 04:57:21;;;;;;;37.77;16.97;;;;;;;2.97;100.00;100217.95;1716960;84;21017;-71
2022/12/24 04:59:48;;;;;;;43.50;20.00;;;;;;;2.97;100.00;100224.63;1716839;83;21057;-72
2022/12/24 05:02:14;;;;;;;43.07;19.27;;;;;;;2.94;100.00;100216.37;1716849;83;21026;-72
2022/12/24 05:04:41;;;;;;;35.40;15.93;;;;;;;2.96;100.00;100224.28;1717150;84;21045;-72
2022/12/24 05:07:09;;;;;;;33.87;16.97;;;;;;;2.97;100.00;100220.13;1716937;83;20998;-69
2022/12/24 05:09:36;;;;;;;35.33;15.70;;;;;;;2.97;100.00;100219.28;1716679;84;20998;-70
2022/12/24 05:12:03;;;;;;;33.10;16.03;;;;;;;2.96;100.00;100218.44;1716908;82;21041;-71
2022/12/24 05:14:30;;;;;;;32.83;15.23;;;;;;;2.98;100.00;100221.00;1716666;84;21033;-71
2022/12/24 05:16:57;;;;;;;31.53;14.00;;;;;;;2.99;100.00;100223.55;1716881;84;21065;-71
2022/12/24 05:19:25;;;;;;;31.17;14.37;;;;;;;2.99;100.00;100224.89;1716837;84;21072;-71
2022/12/24 05:27:22;;;;;;;32.30;15.27;;;;;;;3.00;100.00;100226.58;1716999;83;21001;-71
2022/12/24 05:29:49;;;;;;;31.37;14.23;;;;;;;3.02;100.00;100233.14;1717118;83;21463;-72
2022/12/24 05:32:16;;;;;;;29.67;14.47;;;;;;;3.03;100.00;100233.52;1716933;84;21515;-70
2022/12/24 05:34:43;;;;;;;32.63;15.33;;;;;;;3.02;100.00;100242.48;1716921;83;21025;-71
2022/12/24 05:37:10;;;;;;;29.10;14.40;;;;;;;3.00;100.00;100237.27;1717091;84;21009;-72
2022/12/24 05:39:36;;;;;;;30.03;15.23;;;;;;;3.00;100.00;100227.06;1716911;84;20990;-72
2022/12/24 05:42:03;;;;;;;30.83;15.50;;;;;;;3.00;100.00;100229.25;1717067;84;20990;-71
2022/12/24 05:44:30;;;;;;;36.20;16.77;;;;;;;2.98;100.00;100237.87;1716893;84;21045;-71
2022/12/24 05:46:57;;;;;;;32.13;14.17;;;;;;;2.97;100.00;100233.97;1716617;83;21093;-71
2022/12/24 05:49:25;;;;;;;29.33;13.60;;;;;;;2.97;100.00;100230.81;1716826;84;21503;-72
2022/12/24 05:51:52;;;;;;;30.23;14.37;;;;;;;2.98;100.00;100228.52;1717027;84;21081;-71
2022/12/24 05:54:19;;;;;;;27.97;14.37;;;;;;;2.98;100.00;100225.00;1716665;84;21081;-72
2022/12/24 05:56:46;;;;;;;34.00;15.60;;;;;;;2.98;100.00;100227.67;1717421;84;21053;-71
2022/12/24 05:59:13;;;;;;;27.80;14.03;;;;;;;2.97;100.00;100225.47;1716796;84;21002;-72
2022/12/24 06:01:44;;;;;;;30.57;14.97;;;;;;;2.96;100.00;100224.28;1717024;84;21022;-72
2022/12/24 06:04:09;;;;;;;32.73;14.90;;;;;;;2.95;100.00;100230.58;1716425;83;21037;-72
2022/12/24 06:06:36;;;;;;;33.27;14.73;;;;;;;2.96;100.00;100225.61;1716889;84;21457;-72
2022/12/24 06:09:03;;;;;;;34.97;15.00;;;;;;;2.97;100.00;100233.97;1717243;84;21105;-75
2022/12/24 06:11:30;;;;;;;32.07;15.30;;;;;;;2.98;100.00;100239.20;1717619;82;21010;-74
2022/12/24 06:13:56;;;;;;;31.63;14.97;;;;;;;3.01;100.00;100242.98;1712767;82;20990;-73
2022/12/24 06:16:24;;;;;;;33.70;15.80;;;;;;;2.99;100.00;100240.92;1710595;84;21057;-71
2022/12/24 06:18:51;;;;;;;35.53;17.33;;;;;;;3.02;100.00;100242.48;1711134;84;20987;-72
2022/12/24 06:21:18;;;;;;;35.07;16.63;;;;;;;3.04;100.00;100244.06;1709284;84;21003;-71
2022/12/24 06:23:47;;;;;;;36.93;16.77;;;;;;;3.07;100.00;100248.34;1707565;83;21060;-71
2022/12/24 06:26:18;;;;;;;36.70;18.17;;;;;;;3.08;100.00;100251.39;1712774;84;20997;-71
2022/12/24 06:28:45;;;;;;;37.50;18.47;;;;;;;3.07;100.00;100254.17;1716746;84;21037;-72
2022/12/24 06:31:14;;;;;;;40.17;19.50;;;;;;;3.04;100.00;100254.75;1717097;84;21053;-73
2022/12/24 06:33:41;;;;;;;34.50;16.80;;;;;;;3.02;100.00;100262.03;1716705;84;21053;-70
2022/12/24 06:36:11;;;;;;;34.40;16.77;;;;;;;3.00;100.00;100257.30;1716950;84;20989;-70
2022/12/24 06:38:38;;;;;;;32.03;16.90;;;;;;;3.01;100.00;100250.13;1716870;84;21519;-72
2022/12/24 06:41:06;;;;;;;38.40;18.03;;;;;;;3.01;100.00;100250.13;1711467;84;21131;-70
2022/12/24 06:43:34;;;;;;;37.47;19.53;;;;;;;3.01;100.00;100256.34;1715052;84;21022;-73
2022/12/24 06:46:01;;;;;;;37.03;18.63;;;;;;;3.02;100.00;100251.84;1711792;83;20969;-72
2022/12/24 06:48:29;;;;;;;39.07;19.13;;;;;;;3.03;100.00;100237.03;1710651;84;21026;-75
2022/12/24 06:50:56;;;;;;;36.20;18.70;;;;;;;3.08;100.00;100242.50;1714282;84;21512;-74
2022/12/24 06:53:26;;;;;;;36.20;18.17;;;;;;;3.11;100.00;100242.27;1732737;82;21020;-75
2022/12/24 06:56:07;;;;;;;36.33;18.20;;;;;;;3.15;100.00;100245.94;1742333;82;20989;-75
2022/12/24 06:58:34;;;;;;;34.20;16.63;;;;;;;3.17;100.00;100239.98;1741610;82;21015;-75
2022/12/24 07:01:03;;;;;;;36.97;18.47;;;;;;;3.20;100.00;100239.72;1729320;82;20947;-75
2022/12/24 07:03:30;;;;;;;37.60;18.27;;;;;;;3.22;100.00;100240.95;1717319;83;21010;-74
2022/12/24 07:05:57;;;;;;;34.10;17.03;;;;;;;3.25;100.00;100243.39;1717674;84;20988;-75
2022/12/24 07:08:24;;;;;;;35.70;16.47;;;;;;;3.26;100.00;100230.41;1717494;84;21081;-74
2022/12/24 07:10:53;;;;;;;34.97;17.10;;;;;;;3.27;100.00;100233.92;1711555;83;21508;-75
2022/12/24 07:13:20;;;;;;;35.43;17.87;;;;;;;3.29;100.00;100235.48;1711471;84;21065;-75
2022/12/24 07:15:47;;;;;;;35.40;15.50;;;;;;;3.30;100.00;100238.54;1713376;84;21001;-76
2022/12/24 07:18:14;;;;;;;34.70;16.80;;;;;;;3.30;100.00;100233.69;1688126;84;21068;-75
2022/12/24 07:20:42;;;;;;;34.27;15.87;;;;;;;3.29;100.00;100240.83;1705628;84;21036;-71
2022/12/24 07:23:09;;;;;;;32.63;16.20;;;;;;;3.29;100.00;100239.98;1685991;84;21043;-71
2022/12/24 07:25:42;;;;;;;33.17;16.17;;;;;;;3.31;100.00;100248.73;1706002;84;21061;-72
2022/12/24 07:28:18;;;;;;;33.77;16.33;;;;;;;3.33;100.00;100247.66;1686071;84;21035;-69
2022/12/24 07:30:49;;;;;;;40.43;18.00;;;;;;;3.37;100.00;100251.79;1705163;84;21058;-71
2022/12/24 07:33:20;;;;;;;33.08;16.73;;;;;;;3.38;100.00;100243.27;1705620;84;21066;-74
2022/12/24 07:35:48;;;;;;;35.53;17.37;;;;;;;3.42;100.00;100238.08;1706615;84;21536;-74
2022/12/24 07:38:16;;;;;;;39.00;17.33;;;;;;;3.45;100.00;100242.31;1684873;84;21007;-72
2022/12/24 07:40:45;;;;;;;39.90;18.67;;;;;;;3.50;100.00;100245.48;1705633;84;21034;-73
2022/12/24 07:43:14;;;;;;;41.07;18.97;;;;;;;3.56;100.00;100249.00;1662027;84;21103;-72
2022/12/24 07:45:41;;;;;;;40.43;18.63;;;;;;;3.62;100.00;100245.86;1705288;84;21058;-74
2022/12/24 07:48:08;;;;;;;36.13;18.03;;;;;;;3.67;100.00;100241.49;1705818;84;21640;-73
2022/12/24 07:50:35;;;;;;;39.87;19.70;;;;;;;3.72;100.00;100234.80;1705625;84;21042;-74
2022/12/24 07:53:02;;;;;;;44.13;21.57;;;;;;;3.79;100.00;100240.02;1688856;84;21529;-74
2022/12/24 07:55:32;;;;;;;38.80;19.67;;;;;;;3.86;100.00;100243.06;1710828;84;21105;-76
2022/12/24 07:57:59;;;;;;;38.77;20.00;;;;;;;3.90;100.00;100240.99;1710847;84;21120;-76
2022/12/24 08:00:26;;;;;;;48.90;24.37;;;;;;;3.93;100.00;100235.37;1711277;84;21010;-76
2022/12/24 08:02:53;;;;;;;36.37;18.47;;;;;;;3.96;100.00;100237.81;1711108;84;21093;-75
2022/12/24 08:05:21;;;;;;;35.13;17.33;;;;;;;3.98;100.00;100238.06;1711238;84;20983;-74
2022/12/24 08:07:48;;;;;;;38.50;19.43;;;;;;;4.04;100.00;100227.81;1714920;83;20958;-74
2022/12/24 08:10:15;;;;;;;48.33;22.63;;;;;;;4.09;100.00;100236.32;1717782;84;20990;-73
2022/12/24 08:12:42;;;;;;;37.67;19.10;;;;;;;4.10;100.00;100241.55;1717149;84;21045;-75
2022/12/24 08:15:10;;;;;;;42.57;20.20;;;;;;;4.12;100.00;100228.89;1717029;82;21552;-74
2022/12/24 08:17:38;;;;;;;42.57;21.20;;;;;;;4.14;100.00;100234.13;1716454;84;21076;-73
2022/12/24 08:20:09;;;;;;;36.47;18.67;;;;;;;4.15;100.00;100231.82;1714631;83;21055;-76
2022/12/24 08:22:39;;;;;;;36.53;19.43;;;;;;;4.14;100.00;100230.98;1708858;84;21005;-73
2022/12/24 08:25:07;;;;;;;43.17;22.93;;;;;;;4.19;100.00;100233.27;1732097;82;21032;-76
2022/12/24 08:27:35;;;;;;;70.57;36.90;;;;;;;4.23;100.00;100233.86;1722004;83;21100;-75
2022/12/24 08:30:04;;;;;;;54.30;28.83;;;;;;;4.23;100.00;100236.05;1721473;83;21028;-74
2022/12/24 08:32:39;;;;;;;44.63;24.70;;;;;;;4.21;100.00;100226.45;1721820;82;21091;-74
2022/12/24 08:35:08;;;;;;;39.27;22.53;;;;;;;4.22;100.00;100224.15;1731205;81;20989;-75
2022/12/24 08:37:35;;;;;;;45.23;24.57;;;;;;;4.20;100.00;100222.94;1747109;81;21055;-77
2022/12/24 08:40:02;;;;;;;47.37;24.37;;;;;;;4.26;100.00;100233.13;1742842;82;21007;-77
2022/12/24 08:42:29;;;;;;;51.03;29.00;;;;;;;4.30;100.00;100225.69;1742729;82;21055;-76
2022/12/24 08:44:56;;;;;;;54.80;28.97;;;;;;;4.32;100.00;100229.95;1743201;82;21578;-77
2022/12/24 08:47:22;;;;;;;43.70;24.53;;;;;;;4.32;100.00;100234.44;1743079;82;21036;-77
2022/12/24 08:49:50;;;;;;;40.83;23.20;;;;;;;4.27;100.00;100224.63;1741710;81;21016;-77
2022/12/24 08:52:17;;;;;;;37.60;20.37;;;;;;;4.25;100.00;100224.75;1722719;81;21080;-76
2022/12/24 08:54:44;;;;;;;35.73;19.10;;;;;;;4.26;100.00;100213.05;1721376;83;21052;-76
2022/12/24 08:57:13;;;;;;;36.70;19.10;;;;;;;4.28;100.00;100211.09;1721891;82;21015;-77
2022/12/24 08:59:40;;;;;;;36.73;19.93;;;;;;;4.32;100.00;100209.87;1721594;82;21056;-78
2022/12/24 09:02:08;;;;;;;40.27;21.13;;;;;;;4.38;100.00;100207.17;1721500;82;21083;-77
2022/12/24 09:04:42;;;;;;;54.07;29.13;;;;;;;4.44;100.00;100203.13;1711693;83;21035;-79
2022/12/24 09:07:08;;;;;;;49.57;26.33;;;;;;;4.51;100.00;100207.84;1721422;83;21127;-77
2022/12/24 09:09:35;;;;;;;46.20;25.27;;;;;;;4.55;100.00;100198.59;1722152;83;20984;-76
2022/12/24 09:12:08;;;;;;;40.73;21.67;;;;;;;4.60;100.00;100202.70;1722465;82;21059;-75
2022/12/24 09:14:38;;;;;;;39.42;21.35;;;;;;;4.64;100.00;100194.77;1722611;83;21482;-76
2022/12/24 09:17:07;;;;;;;39.33;21.30;;;;;;;4.65;100.00;100194.64;1722821;82;21051;-75
2022/12/24 09:19:34;;;;;;;44.67;22.67;;;;;;;4.62;100.00;100189.56;1722624;83;21044;-76
2022/12/24 09:22:03;;;;;;;43.73;23.70;;;;;;;4.63;100.00;100194.42;1722716;83;21063;-76
2022/12/24 09:24:31;;;;;;;49.57;26.27;;;;;;;4.63;100.00;100194.42;1732856;82;21064;-75
2022/12/24 09:26:58;;;;;;;56.43;32.77;;;;;;;4.64;100.00;100190.74;1739180;82;21008;-75
2022/12/24 09:29:26;;;;;;;57.03;31.63;;;;;;;4.63;100.00;100184.55;1739459;82;21002;-75
2022/12/24 09:31:53;;;;;;;54.70;29.83;;;;;;;4.61;100.00;100188.34;1739224;82;21068;-76
2022/12/24 09:34:21;;;;;;;52.37;30.13;;;;;;;4.58;100.00;100193.45;1739650;82;21021;-77
2022/12/24 09:36:47;;;;;;;51.17;27.60;;;;;;;4.57;100.00;100189.09;1739631;82;21012;-73
2022/12/24 09:39:16;;;;;;;53.07;29.93;;;;;;;4.56;100.00;100186.89;1740135;82;21000;-77
2022/12/24 09:41:58;;;;;;;47.07;23.90;;;;;;;4.58;100.00;100188.09;1740089;82;21048;-76
2022/12/24 09:44:36;;;;;;;47.27;24.37;;;;;;;4.61;100.00;100188.34;1740098;82;21562;-79
2022/12/24 09:47:11;;;;;;;43.10;22.83;;;;;;;4.63;100.00;100180.53;1735117;82;21052;-75
2022/12/24 09:49:42;;;;;;;55.73;30.43;;;;;;;4.65;100.00;100179.91;1714089;82;21033;-79
2022/12/24 09:52:13;;;;;;;44.40;23.67;;;;;;;4.64;100.00;100186.27;1735024;82;21067;-76
2022/12/24 09:54:46;;;;;;;47.50;26.17;;;;;;;4.64;100.00;100176.02;1712415;82;21003;-79
2022/12/24 09:57:33;;;;;;;39.65;22.73;;;;;;;4.68;100.00;100182.34;1743101;82;21015;-77
2022/12/24 10:00:01;;;;;;;36.53;20.23;;;;;;;4.69;100.00;100170.66;1741894;82;21196;-76
2022/12/24 10:02:28;;;;;;;37.00;19.80;;;;;;;4.73;100.00;100173.92;1706456;84;21033;-79
2022/12/24 10:04:55;;;;;;;35.03;20.17;;;;;;;4.76;100.00;100172.30;1686319;85;21093;-76
2022/12/24 10:07:45;;;;;;;35.83;19.13;;;;;;;4.78;100.00;100165.47;1686383;85;21118;-80
2022/12/24 10:10:32;;;;;;;34.27;19.40;;;;;;;4.80;100.00;100164.38;1686545;85;21590;-78
2022/12/24 10:13:17;;;;;;;33.20;18.53;;;;;;;4.84;100.00;100160.95;1685064;85;21044;-79
2022/12/24 10:15:49;;;;;;;31.53;17.83;;;;;;;4.86;100.00;100161.16;1677945;85;21062;-80
2022/12/24 10:18:33;;;;;;;29.13;15.77;;;;;;;4.90;100.00;100159.06;1658876;87;21081;-81
2022/12/24 10:21:36;;;;;;;33.30;18.57;;;;;;;4.93;100.00;100155.63;1676915;85;21055;-75
2022/12/24 10:24:14;;;;;;;40.30;19.87;;;;;;;4.98;100.00;100155.75;1664368;84;21559;-75
2022/12/24 10:26:50;;;;;;;33.70;17.73;;;;;;;4.99;100.00;100150.73;1654479;86;21088;-74
2022/12/24 10:29:20;;;;;;;33.00;17.53;;;;;;;4.99;100.00;100152.07;1641413;87;21075;-77
2022/12/24 10:32:15;;;;;;;28.90;15.07;;;;;;;4.99;100.00;100143.53;1653956;87;21055;-77
2022/12/24 10:34:54;;;;;;;29.83;16.90;;;;;;;5.00;100.00;100151.10;1653801;87;21059;-77
2022/12/24 10:37:27;;;;;;;29.07;15.17;;;;;;;5.02;100.00;100143.27;1653898;87;21048;-76
2022/12/24 10:39:55;;;;;;;;;;;;;;;5.04;100.00;100150.69;1656597;85;21034;-76
2022/12/24 10:42:26;;;;;;;29.73;16.13;;;;;;;5.04;100.00;100153.36;1654334;87;20397;-76
2022/12/24 10:44:56;;;;;;;30.67;15.77;;;;;;;5.06;100.00;100150.05;1654588;87;21026;-77
2022/12/24 10:47:24;;;;;;;30.87;16.37;;;;;;;5.11;100.00;100152.34;1656783;87;21020;-77
2022/12/24 10:50:04;;;;;;;32.13;17.63;;;;;;;5.16;100.00;100154.14;1655041;87;21513;-76
2022/12/24 10:52:35;;;;;;;30.97;17.53;;;;;;;5.19;100.00;100153.02;1631146;87;21098;-76
2022/12/24 10:55:23;;;;;;;33.33;16.50;;;;;;;5.23;100.00;100159.83;1658118;87;21026;-80
2022/12/24 10:58:01;;;;;;;32.13;18.30;;;;;;;5.23;100.00;100154.47;1656214;87;20980;-78
2022/12/24 11:00:29;;;;;;;30.93;17.70;;;;;;;5.19;100.00;100151.20;1654260;86;21460;-79
2022/12/24 11:03:12;;;;;;;29.70;16.70;;;;;;;5.17;100.00;100157.66;1644839;86;21015;-79
2022/12/24 11:05:39;;;;;;;30.93;15.50;;;;;;;5.18;100.00;100156.70;1660639;86;21503;-79
2022/12/24 11:08:19;;;;;;;27.80;15.40;;;;;;;5.17;100.00;100153.64;1663749;86;21066;-79
2022/12/24 11:10:59;;;;;;;32.87;16.47;;;;;;;5.18;100.00;100152.17;1663451;86;21019;-79
2022/12/24 11:13:38;;;;;;;30.13;16.33;;;;;;;5.16;100.00;100150.13;1661597;86;21082;-80
2022/12/24 11:16:19;;;;;;;28.53;14.90;;;;;;;5.14;100.00;100152.94;1661724;86;21660;-78
2022/12/24 11:18:49;;;;;;;33.83;18.23;;;;;;;5.17;100.00;100152.30;1662230;86;21465;-80
2022/12/24 11:21:31;;;;;;;30.53;16.23;;;;;;;5.16;100.00;100156.83;1663247;86;21055;-79
2022/12/24 11:24:09;;;;;;;28.23;15.40;;;;;;;5.16;100.00;100157.33;1720965;81;21507;-79
2022/12/24 11:26:36;;;;;;;32.47;16.53;;;;;;;5.17;100.00;100153.17;1719087;82;21529;-79
2022/12/24 11:29:26;;;;;;;30.93;15.27;;;;;;;5.20;100.00;100156.91;1717673;84;21014;-81
2022/12/24 11:32:15;;;;;;;28.03;14.87;;;;;;;5.21;100.00;100149.73;1718017;84;20995;-77
2022/12/24 11:34:42;;;;;;;26.50;14.20;;;;;;;5.20;100.00;100144.00;1717404;83;21001;-78